sensor_id;sensor_type;location;lat;lon;timestamp;P1;durP1;ratioP1;P2;durP2;ratioP2
11151;SDS011;5630;49.342;10.802;2023-11-22T00:01:34;5.93;;;4.50;;
11151;SDS011;5630;49.342;10.802;2023-11-22T00:03:59;6.90;;;4.93;;
11151;SDS011;5630;49.342;10.802;2023-11-22T00:06:25;6.57;;;4.90;;
11151;SDS011;5630;49.342;10.802;2023-11-22T00:08:52;6.13;;;5.30;;
11151;SDS011;5630;49.342;10.802;2023-11-22T00:11:17;5.60;;;5.10;;
11151;SDS011;5630;49.342;10.802;2023-11-22T00:13:43;6.43;;;5.10;;
11151;SDS011;5630;49.342;10.802;2023-11-22T00:16:09;11.30;;;5.57;;
11151;SDS011;5630;49.342;10.802;2023-11-22T00:18:35;6.23;;;4.93;;
11151;SDS011;5630;49.342;10.802;2023-11-22T00:21:04;8.77;;;6.23;;
11151;SDS011;5630;49.342;10.802;2023-11-22T00:23:29;6.40;;;5.80;;
11151;SDS011;5630;49.342;10.802;2023-11-22T00:25:55;6.27;;;5.67;;
11151;SDS011;5630;49.342;10.802;2023-11-22T00:28:24;6.97;;;6.27;;
11151;SDS011;5630;49.342;10.802;2023-11-22T00:30:50;7.70;;;6.90;;
11151;SDS011;5630;49.342;10.802;2023-11-22T00:33:15;7.67;;;6.50;;
11151;SDS011;5630;49.342;10.802;2023-11-22T00:35:44;9.13;;;7.47;;
11151;SDS011;5630;49.342;10.802;2023-11-22T00:38:09;8.37;;;7.40;;
11151;SDS011;5630;49.342;10.802;2023-11-22T00:40:35;9.87;;;7.97;;
11151;SDS011;5630;49.342;10.802;2023-11-22T00:43:00;8.40;;;7.53;;
11151;SDS011;5630;49.342;10.802;2023-11-22T00:45:26;9.30;;;7.67;;
11151;SDS011;5630;49.342;10.802;2023-11-22T00:47:51;9.03;;;8.13;;
11151;SDS011;5630;49.342;10.802;2023-11-22T00:50:17;9.77;;;8.87;;
11151;SDS011;5630;49.342;10.802;2023-11-22T00:52:46;9.87;;;8.70;;
11151;SDS011;5630;49.342;10.802;2023-11-22T00:55:12;10.88;;;9.02;;
11151;SDS011;5630;49.342;10.802;2023-11-22T00:57:38;9.90;;;8.90;;
11151;SDS011;5630;49.342;10.802;2023-11-22T01:00:04;10.90;;;9.17;;
11151;SDS011;5630;49.342;10.802;2023-11-22T01:02:33;9.13;;;8.10;;
11151;SDS011;5630;49.342;10.802;2023-11-22T01:04:59;9.30;;;7.37;;
11151;SDS011;5630;49.342;10.802;2023-11-22T01:07:25;7.80;;;7.00;;
11151;SDS011;5630;49.342;10.802;2023-11-22T01:09:51;8.40;;;6.57;;
11151;SDS011;5630;49.342;10.802;2023-11-22T01:12:18;7.30;;;6.60;;
11151;SDS011;5630;49.342;10.802;2023-11-22T01:14:44;6.88;;;6.18;;
11151;SDS011;5630;49.342;10.802;2023-11-22T01:17:09;7.67;;;6.57;;
11151;SDS011;5630;49.342;10.802;2023-11-22T01:19:35;8.57;;;6.90;;
11151;SDS011;5630;49.342;10.802;2023-11-22T01:22:01;7.60;;;6.80;;
11151;SDS011;5630;49.342;10.802;2023-11-22T01:24:26;7.00;;;6.30;;
11151;SDS011;5630;49.342;10.802;2023-11-22T01:26:53;7.32;;;6.63;;
11151;SDS011;5630;49.342;10.802;2023-11-22T01:29:18;6.57;;;5.97;;
11151;SDS011;5630;49.342;10.802;2023-11-22T01:31:44;7.30;;;6.53;;
11151;SDS011;5630;49.342;10.802;2023-11-22T01:34:09;10.53;;;6.57;;
11151;SDS011;5630;49.342;10.802;2023-11-22T01:36:35;7.77;;;6.60;;
11151;SDS011;5630;49.342;10.802;2023-11-22T01:39:03;7.28;;;6.20;;
11151;SDS011;5630;49.342;10.802;2023-11-22T01:41:28;6.80;;;5.97;;
11151;SDS011;5630;49.342;10.802;2023-11-22T01:43:55;6.85;;;6.10;;
11151;SDS011;5630;49.342;10.802;2023-11-22T01:46:24;7.00;;;5.90;;
11151;SDS011;5630;49.342;10.802;2023-11-22T01:48:50;6.55;;;5.80;;
11151;SDS011;5630;49.342;10.802;2023-11-22T01:51:18;6.20;;;5.60;;
11151;SDS011;5630;49.342;10.802;2023-11-22T01:53:48;7.13;;;6.00;;
11151;SDS011;5630;49.342;10.802;2023-11-22T01:56:18;7.28;;;6.15;;
11151;SDS011;5630;49.342;10.802;2023-11-22T01:58:48;7.00;;;5.80;;
11151;SDS011;5630;49.342;10.802;2023-11-22T02:01:14;6.55;;;5.93;;
11151;SDS011;5630;49.342;10.802;2023-11-22T02:03:40;7.77;;;6.13;;
11151;SDS011;5630;49.342;10.802;2023-11-22T02:06:06;7.03;;;6.32;;
11151;SDS011;5630;49.342;10.802;2023-11-22T02:08:34;8.32;;;6.25;;
11151;SDS011;5630;49.342;10.802;2023-11-22T02:11:00;9.67;;;6.90;;
11151;SDS011;5630;49.342;10.802;2023-11-22T02:13:32;8.80;;;6.32;;
11151;SDS011;5630;49.342;10.802;2023-11-22T02:15:57;6.93;;;6.22;;
11151;SDS011;5630;49.342;10.802;2023-11-22T02:18:26;7.07;;;6.10;;
11151;SDS011;5630;49.342;10.802;2023-11-22T02:20:52;7.50;;;6.70;;
11151;SDS011;5630;49.342;10.802;2023-11-22T02:23:18;8.50;;;6.50;;
11151;SDS011;5630;49.342;10.802;2023-11-22T02:25:44;7.60;;;6.60;;
11151;SDS011;5630;49.342;10.802;2023-11-22T02:28:10;7.65;;;6.55;;
11151;SDS011;5630;49.342;10.802;2023-11-22T02:30:36;7.25;;;6.55;;
11151;SDS011;5630;49.342;10.802;2023-11-22T02:33:02;7.03;;;6.20;;
11151;SDS011;5630;49.342;10.802;2023-11-22T02:35:29;7.22;;;6.53;;
11151;SDS011;5630;49.342;10.802;2023-11-22T02:37:57;8.05;;;6.72;;
11151;SDS011;5630;49.342;10.802;2023-11-22T02:40:22;8.30;;;6.93;;
11151;SDS011;5630;49.342;10.802;2023-11-22T02:42:49;8.02;;;6.50;;
11151;SDS011;5630;49.342;10.802;2023-11-22T02:45:16;7.70;;;6.30;;
11151;SDS011;5630;49.342;10.802;2023-11-22T02:47:43;8.55;;;6.65;;
11151;SDS011;5630;49.342;10.802;2023-11-22T02:50:12;8.82;;;7.13;;
11151;SDS011;5630;49.342;10.802;2023-11-22T02:52:38;7.55;;;6.75;;
11151;SDS011;5630;49.342;10.802;2023-11-22T02:55:04;7.53;;;6.10;;
11151;SDS011;5630;49.342;10.802;2023-11-22T02:57:30;7.88;;;6.53;;
11151;SDS011;5630;49.342;10.802;2023-11-22T02:59:57;7.22;;;6.22;;
11151;SDS011;5630;49.342;10.802;2023-11-22T03:02:22;8.00;;;6.07;;
11151;SDS011;5630;49.342;10.802;2023-11-22T03:04:49;7.20;;;6.40;;
11151;SDS011;5630;49.342;10.802;2023-11-22T03:07:15;6.10;;;5.43;;
11151;SDS011;5630;49.342;10.802;2023-11-22T03:09:40;6.83;;;5.77;;
11151;SDS011;5630;49.342;10.802;2023-11-22T03:12:08;7.07;;;5.85;;
11151;SDS011;5630;49.342;10.802;2023-11-22T03:14:35;6.77;;;5.57;;
11151;SDS011;5630;49.342;10.802;2023-11-22T03:17:00;6.15;;;5.55;;
11151;SDS011;5630;49.342;10.802;2023-11-22T03:19:26;6.27;;;5.67;;
11151;SDS011;5630;49.342;10.802;2023-11-22T03:21:52;8.13;;;5.27;;
11151;SDS011;5630;49.342;10.802;2023-11-22T03:24:17;8.57;;;6.40;;
11151;SDS011;5630;49.342;10.802;2023-11-22T03:26:43;7.63;;;5.70;;
11151;SDS011;5630;49.342;10.802;2023-11-22T03:29:10;7.05;;;5.70;;
11151;SDS011;5630;49.342;10.802;2023-11-22T03:31:35;12.93;;;5.87;;
11151;SDS011;5630;49.342;10.802;2023-11-22T03:34:01;6.30;;;5.70;;
11151;SDS011;5630;49.342;10.802;2023-11-22T03:36:26;6.00;;;5.20;;
11151;SDS011;5630;49.342;10.802;2023-11-22T03:38:52;6.43;;;5.53;;
11151;SDS011;5630;49.342;10.802;2023-11-22T03:41:18;6.40;;;5.40;;
11151;SDS011;5630;49.342;10.802;2023-11-22T03:43:44;5.90;;;5.30;;
11151;SDS011;5630;49.342;10.802;2023-11-22T03:46:09;6.60;;;5.70;;
11151;SDS011;5630;49.342;10.802;2023-11-22T03:48:36;6.47;;;5.78;;
11151;SDS011;5630;49.342;10.802;2023-11-22T03:51:02;5.67;;;5.17;;
11151;SDS011;5630;49.342;10.802;2023-11-22T03:53:27;6.60;;;5.73;;
11151;SDS011;5630;49.342;10.802;2023-11-22T03:55:53;6.07;;;5.47;;
11151;SDS011;5630;49.342;10.802;2023-11-22T03:58:19;6.57;;;5.60;;
11151;SDS011;5630;49.342;10.802;2023-11-22T04:00:44;6.47;;;5.87;;
11151;SDS011;5630;49.342;10.802;2023-11-22T04:03:10;7.57;;;5.80;;
11151;SDS011;5630;49.342;10.802;2023-11-22T04:05:35;7.13;;;6.07;;
11151;SDS011;5630;49.342;10.802;2023-11-22T04:08:01;8.80;;;5.77;;
11151;SDS011;5630;49.342;10.802;2023-11-22T04:10:26;7.10;;;5.70;;
11151;SDS011;5630;49.342;10.802;2023-11-22T04:12:52;6.77;;;5.93;;
11151;SDS011;5630;49.342;10.802;2023-11-22T04:15:18;7.50;;;6.03;;
11151;SDS011;5630;49.342;10.802;2023-11-22T04:17:43;7.30;;;5.97;;
11151;SDS011;5630;49.342;10.802;2023-11-22T04:20:09;6.90;;;6.20;;
11151;SDS011;5630;49.342;10.802;2023-11-22T04:22:39;6.93;;;5.53;;
11151;SDS011;5630;49.342;10.802;2023-11-22T04:25:05;6.50;;;5.55;;
11151;SDS011;5630;49.342;10.802;2023-11-22T04:27:33;6.40;;;5.80;;
11151;SDS011;5630;49.342;10.802;2023-11-22T04:29:59;6.43;;;5.67;;
11151;SDS011;5630;49.342;10.802;2023-11-22T04:32:25;5.87;;;5.37;;
11151;SDS011;5630;49.342;10.802;2023-11-22T04:34:50;6.83;;;5.87;;
11151;SDS011;5630;49.342;10.802;2023-11-22T04:37:16;7.73;;;6.10;;
11151;SDS011;5630;49.342;10.802;2023-11-22T04:39:42;5.90;;;5.30;;
11151;SDS011;5630;49.342;10.802;2023-11-22T04:42:07;6.67;;;5.93;;
11151;SDS011;5630;49.342;10.802;2023-11-22T04:44:33;8.20;;;5.90;;
11151;SDS011;5630;49.342;10.802;2023-11-22T04:46:58;6.67;;;5.93;;
11151;SDS011;5630;49.342;10.802;2023-11-22T04:49:24;6.97;;;6.10;;
11151;SDS011;5630;49.342;10.802;2023-11-22T04:51:51;7.15;;;6.43;;
11151;SDS011;5630;49.342;10.802;2023-11-22T04:54:16;5.87;;;5.20;;
11151;SDS011;5630;49.342;10.802;2023-11-22T04:56:42;6.40;;;5.67;;
11151;SDS011;5630;49.342;10.802;2023-11-22T04:59:08;7.00;;;5.83;;
11151;SDS011;5630;49.342;10.802;2023-11-22T05:01:33;7.50;;;6.70;;
11151;SDS011;5630;49.342;10.802;2023-11-22T05:03:59;8.27;;;6.97;;
11151;SDS011;5630;49.342;10.802;2023-11-22T05:06:25;9.03;;;6.93;;
11151;SDS011;5630;49.342;10.802;2023-11-22T05:08:52;9.23;;;7.07;;
11151;SDS011;5630;49.342;10.802;2023-11-22T05:11:19;9.32;;;6.88;;
11151;SDS011;5630;49.342;10.802;2023-11-22T05:13:45;7.60;;;6.70;;
11151;SDS011;5630;49.342;10.802;2023-11-22T05:16:11;9.87;;;6.73;;
11151;SDS011;5630;49.342;10.802;2023-11-22T05:18:38;9.05;;;6.95;;
11151;SDS011;5630;49.342;10.802;2023-11-22T05:21:04;9.27;;;7.23;;
11151;SDS011;5630;49.342;10.802;2023-11-22T05:23:30;6.90;;;6.18;;
11151;SDS011;5630;49.342;10.802;2023-11-22T05:26:02;7.28;;;6.57;;
11151;SDS011;5630;49.342;10.802;2023-11-22T05:28:30;7.93;;;6.78;;
11151;SDS011;5630;49.342;10.802;2023-11-22T05:30:56;8.45;;;7.00;;
11151;SDS011;5630;49.342;10.802;2023-11-22T05:33:22;8.23;;;7.23;;
11151;SDS011;5630;49.342;10.802;2023-11-22T05:35:48;9.52;;;7.50;;
11151;SDS011;5630;49.342;10.802;2023-11-22T05:38:14;8.40;;;7.37;;
11151;SDS011;5630;49.342;10.802;2023-11-22T05:40:41;10.02;;;7.13;;
11151;SDS011;5630;49.342;10.802;2023-11-22T05:43:08;11.02;;;7.50;;
11151;SDS011;5630;49.342;10.802;2023-11-22T05:45:34;8.75;;;7.53;;
11151;SDS011;5630;49.342;10.802;2023-11-22T05:48:01;8.77;;;7.65;;
11151;SDS011;5630;49.342;10.802;2023-11-22T05:50:27;8.98;;;8.07;;
11151;SDS011;5630;49.342;10.802;2023-11-22T05:52:53;9.33;;;7.93;;
11151;SDS011;5630;49.342;10.802;2023-11-22T05:55:18;9.30;;;8.10;;
11151;SDS011;5630;49.342;10.802;2023-11-22T05:57:44;10.00;;;8.40;;
11151;SDS011;5630;49.342;10.802;2023-11-22T06:00:10;10.30;;;8.03;;
11151;SDS011;5630;49.342;10.802;2023-11-22T06:02:39;9.02;;;8.07;;
11151;SDS011;5630;49.342;10.802;2023-11-22T06:05:05;9.70;;;8.40;;
11151;SDS011;5630;49.342;10.802;2023-11-22T06:07:31;10.40;;;9.10;;
11151;SDS011;5630;49.342;10.802;2023-11-22T06:09:58;12.60;;;8.82;;
11151;SDS011;5630;49.342;10.802;2023-11-22T06:12:25;12.50;;;8.85;;
11151;SDS011;5630;49.342;10.802;2023-11-22T06:14:51;9.97;;;8.60;;
11151;SDS011;5630;49.342;10.802;2023-11-22T06:17:17;14.15;;;9.90;;
11151;SDS011;5630;49.342;10.802;2023-11-22T06:19:43;10.47;;;9.37;;
11151;SDS011;5630;49.342;10.802;2023-11-22T06:22:09;13.17;;;8.87;;
11151;SDS011;5630;49.342;10.802;2023-11-22T06:24:35;10.60;;;9.50;;
11151;SDS011;5630;49.342;10.802;2023-11-22T06:27:02;10.40;;;9.30;;
11151;SDS011;5630;49.342;10.802;2023-11-22T06:29:28;12.95;;;9.30;;
11151;SDS011;5630;49.342;10.802;2023-11-22T06:31:54;11.60;;;9.20;;
11151;SDS011;5630;49.342;10.802;2023-11-22T06:34:20;11.25;;;9.55;;
11151;SDS011;5630;49.342;10.802;2023-11-22T06:36:46;13.52;;;9.82;;
11151;SDS011;5630;49.342;10.802;2023-11-22T06:39:12;11.67;;;9.73;;
11151;SDS011;5630;49.342;10.802;2023-11-22T06:41:40;11.00;;;9.55;;
11151;SDS011;5630;49.342;10.802;2023-11-22T06:44:06;11.25;;;9.13;;
11151;SDS011;5630;49.342;10.802;2023-11-22T06:46:32;11.65;;;9.57;;
11151;SDS011;5630;49.342;10.802;2023-11-22T06:48:58;12.43;;;10.00;;
11151;SDS011;5630;49.342;10.802;2023-11-22T06:51:24;13.63;;;9.77;;
11151;SDS011;5630;49.342;10.802;2023-11-22T06:53:50;12.93;;;9.77;;
11151;SDS011;5630;49.342;10.802;2023-11-22T06:56:19;11.18;;;9.57;;
11151;SDS011;5630;49.342;10.802;2023-11-22T06:58:45;12.27;;;10.30;;
11151;SDS011;5630;49.342;10.802;2023-11-22T07:01:11;14.80;;;9.83;;
11151;SDS011;5630;49.342;10.802;2023-11-22T07:03:37;12.65;;;10.65;;
11151;SDS011;5630;49.342;10.802;2023-11-22T07:06:03;12.87;;;10.60;;
11151;SDS011;5630;49.342;10.802;2023-11-22T07:08:29;13.70;;;11.15;;
11151;SDS011;5630;49.342;10.802;2023-11-22T07:10:55;12.55;;;10.68;;
11151;SDS011;5630;49.342;10.802;2023-11-22T07:13:22;16.98;;;12.38;;
11151;SDS011;5630;49.342;10.802;2023-11-22T07:15:49;15.93;;;11.52;;
11151;SDS011;5630;49.342;10.802;2023-11-22T07:18:15;13.25;;;11.43;;
11151;SDS011;5630;49.342;10.802;2023-11-22T07:20:41;15.23;;;12.07;;
11151;SDS011;5630;49.342;10.802;2023-11-22T07:23:07;15.57;;;11.50;;
11151;SDS011;5630;49.342;10.802;2023-11-22T07:25:38;21.50;;;14.32;;
11151;SDS011;5630;49.342;10.802;2023-11-22T07:28:04;17.73;;;13.10;;
11151;SDS011;5630;49.342;10.802;2023-11-22T07:30:30;25.30;;;17.43;;
11151;SDS011;5630;49.342;10.802;2023-11-22T07:32:58;25.50;;;18.37;;
11151;SDS011;5630;49.342;10.802;2023-11-22T07:35:24;22.93;;;15.07;;
11151;SDS011;5630;49.342;10.802;2023-11-22T07:37:53;19.20;;;14.97;;
11151;SDS011;5630;49.342;10.802;2023-11-22T07:40:19;14.57;;;11.73;;
11151;SDS011;5630;49.342;10.802;2023-11-22T07:42:47;13.47;;;10.43;;
11151;SDS011;5630;49.342;10.802;2023-11-22T07:45:13;11.43;;;8.60;;
11151;SDS011;5630;49.342;10.802;2023-11-22T07:47:38;10.73;;;8.57;;
11151;SDS011;5630;49.342;10.802;2023-11-22T07:50:10;10.40;;;8.50;;
11151;SDS011;5630;49.342;10.802;2023-11-22T07:52:38;9.63;;;8.60;;
11151;SDS011;5630;49.342;10.802;2023-11-22T07:55:06;11.03;;;8.43;;
11151;SDS011;5630;49.342;10.802;2023-11-22T07:57:33;11.27;;;9.10;;
11151;SDS011;5630;49.342;10.802;2023-11-22T07:59:59;12.07;;;8.70;;
11151;SDS011;5630;49.342;10.802;2023-11-22T08:02:26;9.70;;;8.27;;
11151;SDS011;5630;49.342;10.802;2023-11-22T08:04:52;15.20;;;8.77;;
11151;SDS011;5630;49.342;10.802;2023-11-22T08:07:18;12.10;;;9.10;;
11151;SDS011;5630;49.342;10.802;2023-11-22T08:09:46;10.20;;;8.10;;
11151;SDS011;5630;49.342;10.802;2023-11-22T08:12:12;13.17;;;9.60;;
11151;SDS011;5630;49.342;10.802;2023-11-22T08:14:38;11.47;;;9.10;;
11151;SDS011;5630;49.342;10.802;2023-11-22T08:17:05;12.75;;;9.93;;
11151;SDS011;5630;49.342;10.802;2023-11-22T08:19:31;14.13;;;10.18;;
11151;SDS011;5630;49.342;10.802;2023-11-22T08:21:57;14.18;;;10.00;;
11151;SDS011;5630;49.342;10.802;2023-11-22T08:24:23;13.75;;;10.75;;
11151;SDS011;5630;49.342;10.802;2023-11-22T08:26:49;14.00;;;10.97;;
11151;SDS011;5630;49.342;10.802;2023-11-22T08:29:15;14.63;;;11.70;;
11151;SDS011;5630;49.342;10.802;2023-11-22T08:31:41;13.43;;;10.65;;
11151;SDS011;5630;49.342;10.802;2023-11-22T08:34:07;16.00;;;11.57;;
11151;SDS011;5630;49.342;10.802;2023-11-22T08:36:34;17.00;;;12.10;;
11151;SDS011;5630;49.342;10.802;2023-11-22T08:39:00;16.15;;;12.52;;
11151;SDS011;5630;49.342;10.802;2023-11-22T08:41:30;15.27;;;11.90;;
11151;SDS011;5630;49.342;10.802;2023-11-22T08:43:57;13.43;;;11.63;;
11151;SDS011;5630;49.342;10.802;2023-11-22T08:46:22;17.03;;;12.73;;
11151;SDS011;5630;49.342;10.802;2023-11-22T08:48:49;17.60;;;12.50;;
11151;SDS011;5630;49.342;10.802;2023-11-22T08:51:16;15.68;;;13.05;;
11151;SDS011;5630;49.342;10.802;2023-11-22T08:53:42;16.88;;;13.63;;
11151;SDS011;5630;49.342;10.802;2023-11-22T08:56:09;18.60;;;13.13;;
11151;SDS011;5630;49.342;10.802;2023-11-22T08:58:36;17.75;;;13.40;;
11151;SDS011;5630;49.342;10.802;2023-11-22T09:01:02;17.57;;;14.10;;
11151;SDS011;5630;49.342;10.802;2023-11-22T09:03:28;18.08;;;14.50;;
11151;SDS011;5630;49.342;10.802;2023-11-22T09:05:54;20.13;;;15.67;;
11151;SDS011;5630;49.342;10.802;2023-11-22T09:08:20;20.20;;;16.40;;
11151;SDS011;5630;49.342;10.802;2023-11-22T09:10:46;21.30;;;17.33;;
11151;SDS011;5630;49.342;10.802;2023-11-22T09:13:12;25.07;;;17.60;;
11151;SDS011;5630;49.342;10.802;2023-11-22T09:15:41;24.10;;;17.77;;
11151;SDS011;5630;49.342;10.802;2023-11-22T09:18:09;21.98;;;17.48;;
11151;SDS011;5630;49.342;10.802;2023-11-22T09:20:35;25.13;;;18.10;;
11151;SDS011;5630;49.342;10.802;2023-11-22T09:23:01;22.80;;;18.02;;
11151;SDS011;5630;49.342;10.802;2023-11-22T09:25:29;21.67;;;17.77;;
11151;SDS011;5630;49.342;10.802;2023-11-22T09:27:56;21.20;;;18.73;;
11151;SDS011;5630;49.342;10.802;2023-11-22T09:30:26;22.23;;;17.75;;
11151;SDS011;5630;49.342;10.802;2023-11-22T09:33:07;22.58;;;18.15;;
11151;SDS011;5630;49.342;10.802;2023-11-22T09:35:34;24.02;;;18.40;;
11151;SDS011;5630;49.342;10.802;2023-11-22T09:38:01;23.75;;;17.33;;
11151;SDS011;5630;49.342;10.802;2023-11-22T09:40:28;21.95;;;17.23;;
11151;SDS011;5630;49.342;10.802;2023-11-22T09:42:56;22.65;;;18.25;;
11151;SDS011;5630;49.342;10.802;2023-11-22T09:45:23;23.02;;;17.90;;
11151;SDS011;5630;49.342;10.802;2023-11-22T09:47:50;20.80;;;17.23;;
11151;SDS011;5630;49.342;10.802;2023-11-22T09:50:20;18.98;;;16.15;;
11151;SDS011;5630;49.342;10.802;2023-11-22T09:52:50;18.50;;;16.50;;
11151;SDS011;5630;49.342;10.802;2023-11-22T09:55:19;18.27;;;14.82;;
11151;SDS011;5630;49.342;10.802;2023-11-22T09:57:45;19.02;;;15.52;;
11151;SDS011;5630;49.342;10.802;2023-11-22T10:00:11;18.40;;;15.07;;
11151;SDS011;5630;49.342;10.802;2023-11-22T10:02:41;17.45;;;15.35;;
11151;SDS011;5630;49.342;10.802;2023-11-22T10:05:07;17.93;;;14.33;;
11151;SDS011;5630;49.342;10.802;2023-11-22T10:07:34;18.92;;;15.05;;
11151;SDS011;5630;49.342;10.802;2023-11-22T10:10:03;17.38;;;13.68;;
11151;SDS011;5630;49.342;10.802;2023-11-22T10:12:30;17.63;;;14.45;;
11151;SDS011;5630;49.342;10.802;2023-11-22T10:15:10;16.00;;;13.98;;
11151;SDS011;5630;49.342;10.802;2023-11-22T10:17:37;16.58;;;13.30;;
11151;SDS011;5630;49.342;10.802;2023-11-22T10:20:03;16.67;;;14.20;;
11151;SDS011;5630;49.342;10.802;2023-11-22T10:22:29;17.70;;;14.15;;
11151;SDS011;5630;49.342;10.802;2023-11-22T10:24:58;16.15;;;13.50;;
11151;SDS011;5630;49.342;10.802;2023-11-22T10:27:26;16.15;;;13.85;;
11151;SDS011;5630;49.342;10.802;2023-11-22T10:29:52;15.40;;;12.90;;
11151;SDS011;5630;49.342;10.802;2023-11-22T10:32:17;17.57;;;12.97;;
11151;SDS011;5630;49.342;10.802;2023-11-22T10:34:43;15.50;;;12.77;;
11151;SDS011;5630;49.342;10.802;2023-11-22T10:37:10;15.25;;;12.45;;
11151;SDS011;5630;49.342;10.802;2023-11-22T10:39:36;14.55;;;12.38;;
11151;SDS011;5630;49.342;10.802;2023-11-22T10:42:02;18.23;;;13.20;;
11151;SDS011;5630;49.342;10.802;2023-11-22T10:44:31;16.48;;;12.70;;
11151;SDS011;5630;49.342;10.802;2023-11-22T10:46:57;17.35;;;13.45;;
11151;SDS011;5630;49.342;10.802;2023-11-22T10:49:25;15.27;;;12.43;;
11151;SDS011;5630;49.342;10.802;2023-11-22T10:51:51;18.57;;;12.00;;
11151;SDS011;5630;49.342;10.802;2023-11-22T10:54:19;13.80;;;11.23;;
11151;SDS011;5630;49.342;10.802;2023-11-22T10:56:46;15.07;;;12.70;;
11151;SDS011;5630;49.342;10.802;2023-11-22T10:59:13;19.50;;;12.90;;
11151;SDS011;5630;49.342;10.802;2023-11-22T11:01:41;16.45;;;12.02;;
11151;SDS011;5630;49.342;10.802;2023-11-22T11:04:11;15.68;;;11.05;;
11151;SDS011;5630;49.342;10.802;2023-11-22T11:06:42;13.77;;;11.25;;
11151;SDS011;5630;49.342;10.802;2023-11-22T11:09:11;14.93;;;12.45;;
11151;SDS011;5630;49.342;10.802;2023-11-22T11:11:40;16.95;;;12.18;;
11151;SDS011;5630;49.342;10.802;2023-11-22T11:14:07;15.45;;;11.40;;
11151;SDS011;5630;49.342;10.802;2023-11-22T11:16:36;14.10;;;11.45;;
11151;SDS011;5630;49.342;10.802;2023-11-22T11:19:06;15.32;;;11.70;;
11151;SDS011;5630;49.342;10.802;2023-11-22T11:21:32;15.93;;;11.27;;
11151;SDS011;5630;49.342;10.802;2023-11-22T11:23:58;15.60;;;12.30;;
11151;SDS011;5630;49.342;10.802;2023-11-22T11:26:28;14.30;;;12.18;;
11151;SDS011;5630;49.342;10.802;2023-11-22T11:28:54;13.77;;;11.93;;
11151;SDS011;5630;49.342;10.802;2023-11-22T11:31:20;14.00;;;12.50;;
11151;SDS011;5630;49.342;10.802;2023-11-22T11:36:27;15.88;;;12.43;;
11151;SDS011;5630;49.342;10.802;2023-11-22T11:38:54;15.23;;;12.63;;
11151;SDS011;5630;49.342;10.802;2023-11-22T11:41:27;17.73;;;11.32;;
11151;SDS011;5630;49.342;10.802;2023-11-22T11:43:55;12.60;;;10.70;;
11151;SDS011;5630;49.342;10.802;2023-11-22T11:46:21;13.80;;;11.32;;
11151;SDS011;5630;49.342;10.802;2023-11-22T11:48:54;13.55;;;11.15;;
11151;SDS011;5630;49.342;10.802;2023-11-22T11:51:24;14.55;;;11.77;;
11151;SDS011;5630;49.342;10.802;2023-11-22T11:53:50;13.15;;;11.63;;
11151;SDS011;5630;49.342;10.802;2023-11-22T11:56:16;15.23;;;11.57;;
11151;SDS011;5630;49.342;10.802;2023-11-22T11:58:44;14.07;;;11.75;;
11151;SDS011;5630;49.342;10.802;2023-11-22T12:01:17;14.07;;;11.52;;
11151;SDS011;5630;49.342;10.802;2023-11-22T12:03:45;15.80;;;12.43;;
11151;SDS011;5630;49.342;10.802;2023-11-22T12:06:18;18.30;;;11.95;;
11151;SDS011;5630;49.342;10.802;2023-11-22T12:08:44;15.50;;;12.57;;
11151;SDS011;5630;49.342;10.802;2023-11-22T12:11:12;14.90;;;12.13;;
11151;SDS011;5630;49.342;10.802;2023-11-22T12:13:38;14.27;;;11.30;;
11151;SDS011;5630;49.342;10.802;2023-11-22T12:16:08;18.13;;;12.75;;
11151;SDS011;5630;49.342;10.802;2023-11-22T12:18:54;15.50;;;12.38;;
11151;SDS011;5630;49.342;10.802;2023-11-22T12:21:20;28.80;;;19.20;;
11151;SDS011;5630;49.342;10.802;2023-11-22T12:23:46;21.97;;;17.13;;
11151;SDS011;5630;49.342;10.802;2023-11-22T12:26:13;15.20;;;12.77;;
11151;SDS011;5630;49.342;10.802;2023-11-22T12:28:40;12.67;;;10.73;;
11151;SDS011;5630;49.342;10.802;2023-11-22T12:31:10;15.37;;;10.33;;
11151;SDS011;5630;49.342;10.802;2023-11-22T12:33:36;12.23;;;10.43;;
11151;SDS011;5630;49.342;10.802;2023-11-22T12:36:02;13.18;;;10.52;;
11151;SDS011;5630;49.342;10.802;2023-11-22T12:38:29;13.23;;;10.33;;
11151;SDS011;5630;49.342;10.802;2023-11-22T12:40:58;14.63;;;11.23;;
11151;SDS011;5630;49.342;10.802;2023-11-22T12:43:24;13.13;;;10.68;;
11151;SDS011;5630;49.342;10.802;2023-11-22T12:46:02;15.43;;;10.55;;
11151;SDS011;5630;49.342;10.802;2023-11-22T12:48:29;13.82;;;10.52;;
11151;SDS011;5630;49.342;10.802;2023-11-22T12:50:55;12.88;;;9.93;;
11151;SDS011;5630;49.342;10.802;2023-11-22T12:53:22;13.70;;;11.30;;
11151;SDS011;5630;49.342;10.802;2023-11-22T12:55:49;11.98;;;10.20;;
11151;SDS011;5630;49.342;10.802;2023-11-22T12:58:16;11.90;;;10.07;;
11151;SDS011;5630;49.342;10.802;2023-11-22T13:00:46;12.35;;;10.38;;
11151;SDS011;5630;49.342;10.802;2023-11-22T13:03:12;11.75;;;9.70;;
11151;SDS011;5630;49.342;10.802;2023-11-22T13:05:42;13.25;;;9.93;;
11151;SDS011;5630;49.342;10.802;2023-11-22T13:08:08;12.63;;;9.63;;
11151;SDS011;5630;49.342;10.802;2023-11-22T13:10:47;13.82;;;10.30;;
11151;SDS011;5630;49.342;10.802;2023-11-22T13:13:18;13.13;;;10.48;;
11151;SDS011;5630;49.342;10.802;2023-11-22T13:15:44;11.35;;;10.00;;
11151;SDS011;5630;49.342;10.802;2023-11-22T13:18:10;11.93;;;9.93;;
11151;SDS011;5630;49.342;10.802;2023-11-22T13:20:36;12.55;;;10.57;;
11151;SDS011;5630;49.342;10.802;2023-11-22T13:23:05;10.80;;;9.65;;
11151;SDS011;5630;49.342;10.802;2023-11-22T13:25:32;11.93;;;10.38;;
11151;SDS011;5630;49.342;10.802;2023-11-22T13:27:58;11.75;;;9.75;;
11151;SDS011;5630;49.342;10.802;2023-11-22T13:30:24;11.70;;;10.13;;
11151;SDS011;5630;49.342;10.802;2023-11-22T13:32:54;19.13;;;14.00;;
11151;SDS011;5630;49.342;10.802;2023-11-22T13:35:26;12.93;;;10.35;;
11151;SDS011;5630;49.342;10.802;2023-11-22T13:37:56;13.07;;;10.35;;
11151;SDS011;5630;49.342;10.802;2023-11-22T13:40:22;17.27;;;14.45;;
11151;SDS011;5630;49.342;10.802;2023-11-22T13:42:50;14.10;;;11.65;;
11151;SDS011;5630;49.342;10.802;2023-11-22T13:45:19;13.07;;;10.50;;
11151;SDS011;5630;49.342;10.802;2023-11-22T13:47:52;11.52;;;10.13;;
11151;SDS011;5630;49.342;10.802;2023-11-22T13:50:22;15.10;;;11.15;;
11151;SDS011;5630;49.342;10.802;2023-11-22T13:52:48;12.20;;;10.40;;
11151;SDS011;5630;49.342;10.802;2023-11-22T13:55:15;11.18;;;9.68;;
11151;SDS011;5630;49.342;10.802;2023-11-22T13:57:42;10.82;;;9.15;;
11151;SDS011;5630;49.342;10.802;2023-11-22T14:00:09;12.13;;;9.27;;
11151;SDS011;5630;49.342;10.802;2023-11-22T14:02:39;12.18;;;9.55;;
11151;SDS011;5630;49.342;10.802;2023-11-22T14:05:07;12.98;;;9.35;;
11151;SDS011;5630;49.342;10.802;2023-11-22T14:07:34;16.95;;;13.52;;
11151;SDS011;5630;49.342;10.802;2023-11-22T14:10:00;18.60;;;14.57;;
11151;SDS011;5630;49.342;10.802;2023-11-22T14:12:28;11.80;;;9.63;;
11151;SDS011;5630;49.342;10.802;2023-11-22T14:14:54;10.47;;;8.90;;
11151;SDS011;5630;49.342;10.802;2023-11-22T14:17:19;11.77;;;8.67;;
11151;SDS011;5630;49.342;10.802;2023-11-22T14:19:46;11.57;;;9.10;;
11151;SDS011;5630;49.342;10.802;2023-11-22T14:22:12;11.37;;;9.03;;
11151;SDS011;5630;49.342;10.802;2023-11-22T14:24:39;14.23;;;10.40;;
11151;SDS011;5630;49.342;10.802;2023-11-22T14:27:05;13.73;;;10.63;;
11151;SDS011;5630;49.342;10.802;2023-11-22T14:29:30;15.93;;;11.10;;
11151;SDS011;5630;49.342;10.802;2023-11-22T14:31:58;14.70;;;10.60;;
11151;SDS011;5630;49.342;10.802;2023-11-22T14:34:24;14.70;;;10.47;;